createdAt,value
2022-08-01T00:00:46.231Z,24.6
2022-08-01T00:03:01.167Z,24.8
2022-08-01T00:05:16.102Z,24.4
2022-08-01T00:07:30.785Z,24.7
2022-08-01T00:09:45.736Z,24.5
2022-08-01T00:12:00.573Z,24.6
2022-08-01T00:14:15.379Z,24.3
2022-08-01T00:16:30.315Z,24.4
2022-08-01T00:18:45.134Z,24.5
2022-08-01T00:20:59.950Z,24.4
2022-08-01T00:23:14.867Z,24.3
2022-08-01T00:25:33.642Z,24.3
2022-08-01T03:35:47.473Z,23.2
2022-08-01T03:38:17.266Z,23.2
2022-08-01T03:40:32.600Z,23.4
2022-08-01T03:42:47.530Z,23.9
2022-08-01T03:45:02.374Z,24.2
2022-08-01T03:47:17.128Z,23.6
2022-08-01T03:49:32.176Z,23.4
2022-08-01T03:51:46.930Z,23.4
2022-08-01T03:54:01.741Z,23.3
2022-08-01T03:56:16.707Z,23.3
2022-08-01T03:58:38.640Z,23.2
2022-08-01T04:00:53.435Z,23.6
2022-08-01T04:03:08.405Z,23.2
2022-08-01T04:05:23.326Z,23.1
2022-08-01T04:07:38.276Z,23.5
2022-08-01T04:09:53.401Z,23.3
2022-08-01T04:12:12.012Z,23.3
2022-08-01T04:14:23.341Z,23.4
2022-08-01T04:16:38.037Z,23.4
2022-08-01T04:18:53.137Z,23.6
2022-08-01T04:21:08.097Z,23.4
2022-08-01T04:23:22.884Z,23.6
2022-08-01T04:25:38.119Z,23.4
2022-08-01T04:28:08.044Z,23.6
2022-08-01T04:30:22.973Z,23.6
2022-08-01T04:32:37.802Z,23.6
2022-08-01T04:34:53.038Z,23.7
2022-08-01T04:37:48.286Z,23.9
2022-08-01T04:40:07.834Z,23.8
2022-08-01T04:42:25.231Z,23.9
2022-08-01T04:44:37.451Z,23.6
2022-08-01T04:46:52.253Z,23.6
2022-08-01T04:49:07.432Z,23.1
2022-08-01T04:51:22.247Z,22.8
2022-08-01T04:53:37.275Z,23.1
2022-08-01T04:55:52.016Z,23.1
2022-08-01T04:58:06.933Z,23.1
2022-08-01T05:00:22.202Z,23.1
2022-08-01T05:02:36.829Z,23.1
2022-08-01T05:04:51.942Z,23.1
2022-08-01T05:07:06.803Z,23.1
2022-08-01T05:09:21.903Z,22.9
2022-08-01T05:11:36.730Z,23.2
2022-08-01T05:13:51.791Z,23
2022-08-01T05:16:06.888Z,23.1
2022-08-01T05:18:38.879Z,23.1
2022-08-01T05:20:53.715Z,23.3
2022-08-01T05:23:10.446Z,23.2
2022-08-01T05:25:56.562Z,23.3
2022-08-01T05:28:00.318Z,23.1
2022-08-01T05:30:15.353Z,23.6
2022-08-01T05:32:30.100Z,23.6
2022-08-01T05:34:44.897Z,23.7
2022-08-01T05:37:06.093Z,23.8
2022-08-01T05:39:20.913Z,23.9
2022-08-01T05:41:36.018Z,24
2022-08-01T05:43:50.142Z,24.1
2022-08-01T05:46:05.673Z,24.1
2022-08-01T05:48:20.393Z,23.8
2022-08-01T05:50:35.170Z,23.8
2022-08-01T05:52:50.058Z,24.3
2022-08-01T05:55:05.020Z,24.4
2022-08-01T05:57:19.952Z,24.6
2022-08-01T05:59:34.687Z,24.6
2022-08-01T06:01:49.531Z,24.6
2022-08-01T06:04:04.236Z,24.6
2022-08-01T06:06:19.173Z,24.7
2022-08-01T06:08:34.114Z,24.6
2022-08-01T06:10:48.894Z,24.6
2022-08-01T06:13:03.852Z,25.1
2022-08-01T06:15:20.317Z,24.9
2022-08-01T06:17:35.317Z,25.1
2022-08-01T06:19:50.124Z,25.2
2022-08-01T06:22:05.306Z,25.3
2022-08-01T06:24:33.807Z,25.3
2022-08-01T06:26:48.672Z,25.4
2022-08-01T06:29:08.461Z,25.4
2022-08-01T06:31:23.225Z,25.6
2022-08-01T06:33:38.128Z,25.6
2022-08-01T06:35:52.882Z,25.6
2022-08-01T06:38:07.875Z,25.8
2022-08-01T06:40:22.622Z,25.8
2022-08-01T06:42:37.411Z,25.4
2022-08-01T06:44:52.295Z,25.9
2022-08-01T06:47:07.216Z,25.9
2022-08-01T06:49:22.162Z,25.8
2022-08-01T06:51:36.848Z,25.7
2022-08-01T06:53:51.741Z,26
2022-08-01T06:56:06.577Z,26.1
2022-08-01T06:58:21.374Z,26.2
2022-08-01T07:00:36.225Z,26.1
2022-08-01T07:02:51.090Z,26.3
2022-08-01T07:05:11.555Z,26.1
2022-08-01T07:07:26.490Z,26.1
2022-08-01T07:09:41.868Z,26.1
2022-08-01T07:11:56.459Z,26.5
2022-08-01T07:14:17.526Z,26.4
2022-08-01T07:16:32.440Z,26.5
2022-08-01T07:18:47.298Z,26.4
2022-08-01T07:21:02.085Z,26.5
2022-08-01T07:23:33.120Z,26.4
2022-08-01T07:25:46.942Z,26.8
2022-08-01T07:27:58.392Z,26.9
2022-08-01T07:30:13.264Z,26.8
2022-08-01T07:32:28.080Z,26.9
2022-08-01T07:34:50.830Z,27.1
2022-08-01T07:37:05.539Z,27.1
2022-08-01T07:39:35.843Z,27.1
2022-08-01T07:42:10.385Z,27.1
2022-08-01T07:44:25.058Z,27.1
2022-08-01T07:46:39.980Z,27.4
2022-08-01T07:48:54.876Z,27.1
2022-08-01T07:51:09.784Z,27.5
2022-08-01T07:53:24.647Z,27.6
2022-08-01T07:55:39.517Z,27.3
2022-08-01T07:57:54.141Z,26.9
2022-08-01T08:00:09.106Z,27.4
2022-08-01T08:02:23.953Z,27.2
2022-08-01T08:04:38.776Z,27.6
2022-08-01T08:07:17.371Z,27.7
2022-08-01T08:09:37.055Z,27.6
2022-08-01T08:11:47.938Z,27.5
2022-08-01T08:14:01.814Z,27.5
2022-08-01T08:16:16.929Z,27.6
2022-08-01T08:18:31.507Z,27.6
2022-08-01T08:20:46.433Z,27.6
2022-08-01T08:23:01.456Z,27.6
2022-08-01T08:25:28.991Z,27.6
2022-08-01T08:27:43.864Z,27.7
2022-08-01T08:29:58.730Z,27.8
2022-08-01T08:32:25.676Z,28.2
2022-08-01T08:34:40.457Z,28.2
2022-08-01T08:37:11.790Z,28.4
2022-08-01T08:39:26.813Z,28.3
2022-08-01T08:41:41.534Z,28
2022-08-01T08:43:56.431Z,28.1
2022-08-01T08:46:27.971Z,28.2
2022-08-01T08:48:38.950Z,28.1
2022-08-01T08:50:54.442Z,28.1
2022-08-01T08:53:09.239Z,28.1
2022-08-01T08:55:24.091Z,28.1
2022-08-01T08:57:44.797Z,28.1
2022-08-01T08:59:59.607Z,28.2
2022-08-01T09:02:14.856Z,28.1
2022-08-01T09:04:29.550Z,28
2022-08-01T09:06:44.323Z,28.2
2022-08-01T09:08:59.481Z,28.3
2022-08-01T09:11:18.732Z,28.1
2022-08-01T09:13:29.938Z,28.3
2022-08-01T09:15:44.693Z,28.1
2022-08-01T09:17:59.743Z,28.2
2022-08-01T09:20:26.495Z,28.2
2022-08-01T09:22:43.981Z,28.2
2022-08-01T09:25:01.189Z,28.2
2022-08-01T09:27:19.839Z,28.1
2022-08-01T09:29:40.865Z,28.2
2022-08-01T09:31:55.498Z,28.3
2022-08-01T09:34:10.332Z,28.2
2022-08-01T09:36:25.236Z,28.2
2022-08-01T09:38:40.124Z,28.3
2022-08-01T09:40:55.032Z,28.4
2022-08-01T09:43:11.153Z,28.3
2022-08-01T09:45:28.268Z,28.3
2022-08-01T09:47:43.138Z,28.3
2022-08-01T09:50:10.961Z,28.3
2022-08-01T09:52:47.022Z,28.3
2022-08-01T09:55:02.751Z,28.3
2022-08-01T09:57:17.628Z,28.3
2022-08-01T09:59:36.160Z,28.3
2022-08-01T10:02:00.560Z,28.4
2022-08-01T10:04:15.592Z,28.3
2022-08-01T10:06:30.244Z,28.2
2022-08-01T10:08:46.222Z,28.3
2022-08-01T10:11:01.045Z,28.3
2022-08-01T10:13:15.833Z,28.3
2022-08-01T10:15:36.576Z,28.4
2022-08-01T10:17:54.355Z,28.4
2022-08-01T10:20:12.972Z,28.4
2022-08-01T10:22:59.782Z,28.4
2022-08-01T10:25:14.823Z,28.4
2022-08-01T10:27:39.887Z,28.4
2022-08-01T10:30:25.225Z,28.6
2022-08-01T10:32:40.026Z,28.5
2022-08-01T10:35:14.983Z,28.4
2022-08-01T10:37:51.434Z,28.4
2022-08-01T10:40:08.768Z,28.3
2022-08-01T10:42:19.227Z,28.4
2022-08-01T10:44:34.577Z,28.5
2022-08-01T10:46:48.904Z,28.4
2022-08-01T10:49:07.999Z,28.4
2022-08-01T10:51:27.012Z,28.3
2022-08-01T10:54:00.822Z,28.4
2022-08-01T10:56:16.749Z,28.6
2022-08-01T10:58:29.104Z,27.7
2022-08-01T11:00:53.659Z,28.4
2022-08-01T11:03:08.437Z,28.6
2022-08-01T11:05:45.731Z,28.5
2022-08-01T11:08:00.419Z,28.5
2022-08-01T11:10:15.444Z,28.3
2022-08-01T11:12:30.250Z,28.6
2022-08-01T11:14:56.951Z,28.4
2022-08-01T11:17:12.326Z,28.3
2022-08-01T11:19:27.191Z,28.3
2022-08-01T11:22:31.688Z,28.4
2022-08-01T11:24:46.681Z,28.3
2022-08-01T11:27:28.010Z,28.3
2022-08-01T11:29:58.911Z,28.3
2022-08-01T11:32:13.660Z,28.3
2022-08-01T11:34:43.040Z,28.3
2022-08-01T11:37:15.272Z,28.3
2022-08-01T11:39:30.133Z,28.3
2022-08-01T11:41:45.305Z,28.3
2022-08-01T11:43:59.747Z,28.3
2022-08-01T11:46:14.652Z,28.2
2022-08-01T11:48:29.485Z,28.3
2022-08-01T11:50:44.324Z,28.3
2022-08-01T11:52:59.390Z,28.3
2022-08-01T11:55:16.652Z,28.3
2022-08-01T11:57:32.618Z,28.3
2022-08-01T11:59:53.099Z,28.3
2022-08-01T12:02:06.499Z,28.3
2022-08-01T12:04:21.240Z,28.8
2022-08-01T12:06:36.059Z,28.3
2022-08-01T12:08:51.022Z,28.3
2022-08-01T12:11:06.702Z,28.2
2022-08-01T12:13:21.367Z,28.4
2022-08-01T12:15:35.505Z,28.4
2022-08-01T12:17:57.745Z,28.4
2022-08-01T12:20:05.221Z,28.8
2022-08-01T12:22:20.081Z,28.7
2022-08-01T12:24:34.851Z,28.4
2022-08-01T12:26:49.983Z,28.4
2022-08-01T12:29:04.609Z,28.4
2022-08-01T12:31:19.452Z,28.4
2022-08-01T12:33:35.197Z,28.4
2022-08-01T12:35:49.164Z,28.7
2022-08-01T12:38:04.380Z,28.4
2022-08-01T12:40:18.912Z,28.4
2022-08-01T12:42:33.784Z,28.4
2022-08-01T12:44:48.515Z,27.8
2022-08-01T12:47:03.658Z,28.4
2022-08-01T12:49:18.348Z,27.9
2022-08-01T12:51:33.088Z,28.8
2022-08-01T12:53:48.029Z,28.8
2022-08-01T12:56:02.803Z,28.8
2022-08-01T12:58:17.706Z,28.8
2022-08-01T13:00:32.560Z,28.9
2022-08-01T13:02:47.505Z,28.9
2022-08-01T13:05:02.153Z,28.9
2022-08-01T13:07:16.925Z,28.9
2022-08-01T13:09:32.736Z,28.8
2022-08-01T13:11:58.858Z,28.8
2022-08-01T13:14:06.195Z,29
2022-08-01T13:16:25.829Z,28.8
2022-08-01T13:18:45.240Z,28.8
2022-08-01T13:21:00.218Z,28.8
2022-08-01T13:23:58.844Z,28.8
2022-08-01T13:26:08.069Z,28.8
2022-08-01T13:28:24.249Z,28.8
2022-08-01T13:30:38.840Z,28.9
2022-08-01T13:32:53.758Z,28.9
2022-08-01T13:35:09.054Z,29.1
2022-08-01T13:37:23.443Z,29.1
2022-08-01T13:39:38.328Z,28.9
2022-08-01T13:41:53.092Z,28.8
2022-08-01T13:44:17.033Z,28.9
2022-08-01T13:46:32.930Z,29
2022-08-01T13:49:01.791Z,28.8
2022-08-01T13:51:23.810Z,28.9
2022-08-01T13:53:39.032Z,29
2022-08-01T13:55:54.009Z,29
2022-08-01T13:58:08.827Z,29
2022-08-01T14:00:23.695Z,28.8
2022-08-01T14:02:38.493Z,29.1
2022-08-01T14:04:53.338Z,29.1
2022-08-01T14:07:11.908Z,29.1
2022-08-01T14:09:23.986Z,29.1
2022-08-01T14:12:07.265Z,28.9
2022-08-01T14:14:21.950Z,28.7
2022-08-01T14:16:41.398Z,28.7
2022-08-01T14:18:56.181Z,28.8
2022-08-01T14:21:10.977Z,29
2022-08-01T14:23:26.405Z,29.1
2022-08-01T14:26:11.985Z,28.8
2022-08-01T14:28:22.951Z,28.9
2022-08-01T14:30:51.162Z,28.9
2022-08-01T14:33:05.927Z,29
2022-08-01T14:35:21.048Z,29
2022-08-01T14:38:21.841Z,29
2022-08-01T14:40:33.864Z,28.9
2022-08-01T14:42:48.658Z,28.8
2022-08-01T14:45:06.868Z,28.7
2022-08-01T14:47:23.511Z,28.6
2022-08-01T14:49:42.070Z,28.6
2022-08-01T14:51:53.071Z,28.9
2022-08-01T14:54:08.119Z,28.8
2022-08-01T14:56:22.886Z,28.8
2022-08-01T14:58:37.712Z,29.1
2022-08-01T15:00:58.157Z,28.9
2022-08-01T15:03:08.355Z,29.1
2022-08-01T15:05:23.437Z,28.6
2022-08-01T15:07:41.962Z,29.2
2022-08-01T15:09:55.481Z,28.9
2022-08-01T15:12:10.365Z,28.9
2022-08-01T15:14:25.211Z,28.6
2022-08-01T15:16:40.081Z,28.4
2022-08-01T15:18:54.952Z,28.3
2022-08-01T15:21:11.827Z,28.9
2022-08-01T15:23:28.286Z,28.3
2022-08-01T15:25:44.269Z,28.5
2022-08-01T15:27:58.815Z,28.7
2022-08-01T15:30:13.819Z,28.9
2022-08-01T15:32:28.476Z,28.9
2022-08-01T15:34:43.458Z,28.9
2022-08-01T15:36:58.430Z,29
2022-08-01T15:39:13.259Z,28.8
2022-08-01T15:41:27.967Z,28.8
2022-08-01T15:43:43.089Z,28.9
2022-08-01T15:46:15.503Z,28.8
2022-08-01T15:48:30.785Z,28.6
2022-08-01T15:50:45.153Z,28.6
2022-08-01T15:53:00.102Z,28.1
2022-08-01T15:55:14.940Z,28.7
2022-08-01T15:57:29.766Z,28.4
2022-08-01T15:59:44.543Z,28.4
2022-08-01T16:01:59.569Z,28.3
2022-08-01T16:04:14.257Z,28.3
2022-08-01T16:06:29.154Z,28.3
2022-08-01T16:08:48.299Z,27.9
2022-08-01T16:11:03.197Z,28.2
2022-08-01T16:13:18.075Z,27.9
2022-08-01T16:15:36.364Z,28.3
2022-08-01T16:17:48.029Z,27.9
2022-08-01T16:20:02.675Z,28.4
2022-08-01T16:22:17.426Z,27.9
2022-08-01T16:24:32.470Z,28
2022-08-01T16:26:47.272Z,28
2022-08-01T16:29:02.051Z,27.9
2022-08-01T16:31:43.261Z,28.1
2022-08-01T16:34:48.893Z,28.4
2022-08-01T16:37:03.720Z,28.4
2022-08-01T16:39:22.961Z,28.1
2022-08-01T16:41:37.477Z,28
2022-08-01T16:46:05.793Z,27.9
2022-08-01T16:48:20.908Z,28.1
2022-08-01T16:50:35.734Z,27.9
2022-08-01T16:52:50.644Z,28
2022-08-01T16:55:12.982Z,27.8
2022-08-01T16:57:36.620Z,28.1
2022-08-01T16:59:51.500Z,28.1
2022-08-01T17:02:49.314Z,28.1
2022-08-01T17:05:30.695Z,28.3
2022-08-01T17:07:45.371Z,28
2022-08-01T17:10:00.354Z,27.7
2022-08-01T17:12:21.867Z,28.3
2022-08-01T17:14:30.269Z,28.3
2022-08-01T17:16:44.912Z,27.9
2022-08-01T17:18:59.650Z,28.1
2022-08-01T17:21:14.576Z,28.1
2022-08-01T17:23:29.412Z,27.9
2022-08-01T17:25:44.198Z,27.8
2022-08-01T17:27:59.179Z,27.9
2022-08-01T17:30:15.691Z,28
2022-08-01T17:32:30.020Z,28.3
2022-08-01T17:34:48.780Z,28.2
2022-08-01T17:37:02.890Z,27.9
2022-08-01T17:39:21.910Z,28
2022-08-01T17:41:43.603Z,28.1
2022-08-01T17:43:58.450Z,28
2022-08-01T17:46:15.042Z,27.9
2022-08-01T17:48:37.259Z,28
2022-08-01T17:51:10.469Z,27.9
2022-08-01T17:53:25.198Z,27.9
2022-08-01T17:56:14.462Z,27.9
2022-08-01T17:58:33.315Z,27.9
2022-08-01T18:00:52.765Z,27.9
2022-08-01T18:03:08.117Z,27.8
2022-08-01T18:05:22.503Z,27.9
2022-08-01T18:08:03.409Z,27.4
2022-08-01T18:10:18.771Z,27.9
2022-08-01T18:12:33.642Z,27.8
2022-08-01T18:17:02.929Z,27.6
2022-08-01T18:21:34.577Z,27.8
2022-08-01T18:23:50.945Z,27.8
2022-08-01T18:26:05.393Z,27.4
2022-08-01T18:29:04.071Z,27.6
2022-08-01T18:31:34.520Z,27.6
2022-08-01T18:33:49.382Z,27.3
2022-08-01T18:36:09.734Z,26.9
2022-08-01T18:38:23.988Z,27.4
2022-08-01T18:40:38.616Z,27.5
2022-08-01T18:42:53.499Z,27.2
2022-08-01T18:45:08.388Z,27.3
2022-08-01T18:47:23.343Z,27.4
2022-08-01T18:49:37.999Z,27.4
2022-08-01T18:51:53.366Z,27.2
2022-08-01T18:54:07.983Z,27.3
2022-08-01T18:56:23.241Z,27.3
2022-08-01T18:58:38.010Z,27.2
2022-08-01T19:00:53.130Z,27.3
2022-08-01T19:03:07.963Z,27.1
2022-08-01T19:05:23.040Z,27.3
2022-08-01T19:08:04.736Z,27.1
2022-08-01T19:10:08.843Z,27.1
2022-08-01T19:12:23.775Z,27
2022-08-01T19:14:38.639Z,26.9
2022-08-01T19:16:53.475Z,26.9
2022-08-01T19:19:08.442Z,26.9
2022-08-01T19:21:23.200Z,26.9
2022-08-01T19:23:38.023Z,26.9
2022-08-01T19:25:57.601Z,26.8
2022-08-01T19:28:12.290Z,26.8
2022-08-01T19:30:27.120Z,27.1
2022-08-01T19:32:42.163Z,26.8
2022-08-01T19:34:56.957Z,26.9
2022-08-01T19:37:11.662Z,26.8
2022-08-01T19:39:26.540Z,26.8
2022-08-01T19:41:43.078Z,26.4
2022-08-01T19:43:57.442Z,27
2022-08-01T19:46:14.955Z,26.8
2022-08-01T19:48:39.267Z,26.7
2022-08-01T19:50:54.142Z,26.6
2022-08-01T19:53:09.169Z,26.6
2022-08-01T19:55:23.786Z,26.6
2022-08-01T19:57:45.392Z,26.5
2022-08-01T20:00:10.901Z,26.2
2022-08-01T20:02:26.778Z,26.4
2022-08-01T20:04:41.585Z,26.5
2022-08-01T20:06:56.459Z,26.3
2022-08-01T20:09:11.347Z,26.5
2022-08-01T20:11:26.097Z,26.3
2022-08-01T20:13:41.291Z,26.3
2022-08-01T20:15:55.775Z,26.5
2022-08-01T20:18:10.775Z,26.3
2022-08-01T20:20:25.672Z,26.3
2022-08-01T20:22:40.300Z,26.3
2022-08-01T20:24:55.110Z,26.2
2022-08-01T20:27:10.364Z,26.3
2022-08-01T20:29:24.801Z,26.1
2022-08-01T20:31:43.331Z,26.1
2022-08-01T20:33:54.464Z,26
2022-08-01T20:36:26.822Z,26.2
2022-08-01T20:39:08.815Z,26
2022-08-01T20:41:23.518Z,26
2022-08-01T20:43:38.356Z,26
2022-08-01T20:45:52.670Z,25.9
2022-08-01T20:48:08.253Z,25.9
2022-08-01T20:50:52.630Z,25.9
2022-08-01T20:53:00.142Z,25.9
2022-08-01T20:55:14.892Z,25.9
2022-08-01T20:57:29.782Z,25.9
2022-08-01T21:00:13.796Z,25.8
2022-08-01T21:02:28.553Z,25.6
2022-08-01T21:04:43.403Z,26
2022-08-01T21:06:58.452Z,25.8
2022-08-01T21:09:13.256Z,25.7
2022-08-01T21:11:28.276Z,25.8
2022-08-01T21:13:43.150Z,25.4
2022-08-01T21:16:26.496Z,25.8
2022-08-01T21:18:46.208Z,25.4
2022-08-01T21:21:06.795Z,25.4
2022-08-01T21:23:21.405Z,25.4
2022-08-01T21:25:36.429Z,25.6
2022-08-01T21:27:51.160Z,25.3
2022-08-01T21:30:05.995Z,25.5
2022-08-01T21:32:20.900Z,25.4
2022-08-01T21:34:35.681Z,25.4
2022-08-01T21:36:50.615Z,25.5
2022-08-01T21:39:05.317Z,25.4
2022-08-01T21:41:20.247Z,25.4
2022-08-01T21:44:06.174Z,25.4
2022-08-01T21:46:20.953Z,25.4
2022-08-01T21:48:35.840Z,25.3
2022-08-01T21:50:50.175Z,25.3
2022-08-01T21:53:05.422Z,25.4
2022-08-01T21:55:20.351Z,25.3
2022-08-01T21:57:35.192Z,25.2
2022-08-01T21:59:50.107Z,25.1
2022-08-01T22:02:12.965Z,25.1
2022-08-01T22:04:27.398Z,25.1
2022-08-01T22:06:53.352Z,25
2022-08-01T22:09:08.230Z,25
2022-08-01T22:11:23.250Z,24.9
2022-08-01T22:13:48.716Z,25
2022-08-01T22:16:03.693Z,25.1
2022-08-01T22:18:18.498Z,24.9
2022-08-01T22:20:46.649Z,24.9
2022-08-01T22:23:24.157Z,24.7
2022-08-01T22:25:39.019Z,24.9
2022-08-01T22:28:26.583Z,24.9
2022-08-01T22:30:41.364Z,24.8
2022-08-01T22:33:06.955Z,24.8
2022-08-01T22:35:18.087Z,24.6
2022-08-01T22:38:04.271Z,24.8
2022-08-01T22:40:18.978Z,24.8
2022-08-01T22:42:59.872Z,24.6
2022-08-01T22:45:14.240Z,24.8
2022-08-01T22:47:29.300Z,24.8
2022-08-01T22:49:44.079Z,24.5
2022-08-01T22:51:58.797Z,24.6
2022-08-01T22:54:13.643Z,24.6
2022-08-01T22:56:47.174Z,24.7
2022-08-01T22:59:01.919Z,24.5
2022-08-01T23:01:21.244Z,24.6
2022-08-01T23:03:31.535Z,24.7
2022-08-01T23:05:47.148Z,24.4
2022-08-01T23:08:01.405Z,24.4
2022-08-01T23:10:26.566Z,24.2
2022-08-01T23:12:41.440Z,24.6
2022-08-01T23:14:56.153Z,24.6
2022-08-01T23:17:26.104Z,24.4
2022-08-01T23:19:29.791Z,24.6
2022-08-01T23:21:44.765Z,24.8
2022-08-01T23:23:59.644Z,24.6
2022-08-01T23:26:21.057Z,24.2
2022-08-01T23:28:51.599Z,24.3
2022-08-01T23:31:06.423Z,24.8
2022-08-01T23:33:43.303Z,24.5
2022-08-01T23:35:57.926Z,24.3
2022-08-01T23:38:12.825Z,24.3
2022-08-01T23:40:27.607Z,24.4
2022-08-01T23:42:44.835Z,24.8
2022-08-01T23:44:59.640Z,24.1
2022-08-01T23:47:36.089Z,23.7
2022-08-01T23:49:55.263Z,24.1
2022-08-01T23:52:10.196Z,24.1
2022-08-01T23:54:24.817Z,24.1
2022-08-01T23:56:39.695Z,24
2022-08-01T23:58:54.422Z,24.1
